Time,TemperatureF,DewpointF,PressureIn,WindDirection,WindDirectionDegrees,WindSpeedMPH,WindSpeedGustMPH,Humidity,HourlyPrecipIn,Conditions,Clouds,dailyrainin,SoftwareType,DateUTC
2013-04-14 00:00:00,53.6,53.0,29.88,East,90,4.5,8.3,98,0.00,,,0.00,pywws,2013-04-13 23:00:00,
2013-04-14 00:06:00,53.6,53.0,29.89,SE,135,4.5,8.3,98,0.00,,,0.00,pywws,2013-04-13 23:06:00,
2013-04-14 00:11:00,53.6,53.0,29.89,SE,135,2.2,4.5,98,0.00,,,0.00,pywws,2013-04-13 23:11:00,
2013-04-14 00:17:00,53.6,53.0,29.89,South,180,3.8,9.2,98,0.00,,,0.00,pywws,2013-04-13 23:17:00,
2013-04-14 00:22:00,53.6,53.0,29.89,SE,135,3.1,6.0,98,0.00,,,0.00,pywws,2013-04-13 23:22:00,
2013-04-14 00:28:00,53.6,53.0,29.89,SE,135,4.5,13.6,98,0.00,,,0.00,pywws,2013-04-13 23:28:00,
2013-04-14 00:34:00,53.6,53.0,29.89,South,180,4.5,8.3,98,0.00,,,0.00,pywws,2013-04-13 23:34:00,
2013-04-14 00:39:00,53.6,53.0,29.89,SSW,203,6.0,12.1,98,0.00,,,0.00,pywws,2013-04-13 23:39:00,
2013-04-14 00:45:00,53.6,53.0,29.89,SE,135,4.5,8.3,98,0.00,,,0.00,pywws,2013-04-13 23:45:00,
2013-04-14 00:50:00,53.6,53.0,29.89,SE,135,3.8,9.2,98,0.00,,,0.00,pywws,2013-04-13 23:50:00,
2013-04-14 00:56:00,53.6,53.0,29.89,NW,315,5.4,11.4,98,0.00,,,0.00,pywws,2013-04-13 23:56:00,
2013-04-14 01:01:00,53.6,53.0,29.89,South,180,3.1,6.9,98,0.00,,,0.00,pywws,2013-04-14 00:01:00,
2013-04-14 01:07:00,53.8,53.2,29.89,South,180,3.8,6.9,98,0.00,,,0.00,pywws,2013-04-14 00:07:00,
2013-04-14 01:12:00,53.8,53.2,29.90,South,180,3.8,11.4,98,0.00,,,0.00,pywws,2013-04-14 00:12:00,
2013-04-14 01:17:00,53.8,53.2,29.89,SE,135,6.9,13.0,98,0.00,,,0.00,pywws,2013-04-14 00:17:00,
2013-04-14 01:22:00,53.8,53.2,29.90,North,0,6.0,13.6,98,0.00,,,0.00,pywws,2013-04-14 00:22:00,
2013-04-14 01:28:00,53.8,53.2,29.90,South,180,5.4,9.8,98,0.00,,,0.00,pywws,2013-04-14 00:28:00,
2013-04-14 01:34:00,53.8,53.2,29.90,South,180,3.8,9.2,98,0.00,,,0.00,pywws,2013-04-14 00:34:00,
2013-04-14 01:39:00,53.8,53.2,29.89,South,180,5.4,14.5,98,0.00,,,0.00,pywws,2013-04-14 00:39:00,
2013-04-14 01:45:00,53.8,53.2,29.90,South,180,7.6,12.1,98,0.00,,,0.00,pywws,2013-04-14 00:45:00,
2013-04-14 01:50:00,53.8,53.2,29.90,NW,315,3.1,6.0,98,0.00,,,0.00,pywws,2013-04-14 00:50:00,
2013-04-14 01:56:00,54.0,53.4,29.91,SSE,158,5.4,10.7,98,0.00,,,0.00,pywws,2013-04-14 00:56:00,
2013-04-14 02:02:00,54.1,53.6,29.90,South,180,3.8,9.8,98,0.00,,,0.00,pywws,2013-04-14 01:02:00,
2013-04-14 02:07:00,54.1,53.6,29.90,East,90,6.0,10.7,98,0.00,,,0.00,pywws,2013-04-14 01:07:00,
2013-04-14 02:13:00,54.3,53.8,29.90,South,180,5.4,11.4,98,0.00,,,0.00,pywws,2013-04-14 01:13:00,
2013-04-14 02:18:00,54.3,53.8,29.90,SE,135,7.6,12.1,98,0.00,,,0.00,pywws,2013-04-14 01:18:00,
2013-04-14 02:24:00,54.5,53.9,29.90,NW,315,4.5,13.0,98,0.00,,,0.00,pywws,2013-04-14 01:24:00,
2013-04-14 02:30:00,54.5,53.9,29.90,ENE,68,5.4,9.2,98,0.00,,,0.00,pywws,2013-04-14 01:30:00,
2013-04-14 02:35:00,54.7,54.1,29.90,SE,135,2.2,7.6,98,0.00,,,0.00,pywws,2013-04-14 01:35:00,
2013-04-14 02:41:00,54.7,54.1,29.90,SE,135,3.1,7.6,98,0.00,,,0.00,pywws,2013-04-14 01:41:00,
2013-04-14 02:46:00,54.5,53.9,29.91,South,180,3.8,6.0,98,0.00,,,0.00,pywws,2013-04-14 01:46:00,
2013-04-14 02:52:00,54.7,53.8,29.91,SW,225,6.9,13.6,97,0.00,,,0.00,pywws,2013-04-14 01:52:00,
2013-04-14 02:58:00,54.7,53.8,29.91,West,270,4.5,7.6,97,0.00,,,0.00,pywws,2013-04-14 01:58:00,
2013-04-14 03:03:00,54.7,53.8,29.91,South,180,4.5,6.9,97,0.00,,,0.00,pywws,2013-04-14 02:03:00,
2013-04-14 03:09:00,54.7,53.8,29.91,SE,135,4.5,9.8,97,0.00,,,0.00,pywws,2013-04-14 02:09:00,
2013-04-14 03:14:00,54.7,53.6,29.91,South,180,5.4,8.3,96,0.00,,,0.00,pywws,2013-04-14 02:14:00,
2013-04-14 03:20:00,54.7,53.6,29.91,SW,225,6.0,9.2,96,0.00,,,0.00,pywws,2013-04-14 02:20:00,
2013-04-14 03:26:00,54.5,53.4,29.91,SE,135,4.5,13.0,96,0.00,,,0.00,pywws,2013-04-14 02:26:00,
2013-04-14 03:31:00,54.5,53.1,29.91,SE,135,6.9,9.8,95,0.00,,,0.00,pywws,2013-04-14 02:31:00,
2013-04-14 03:37:00,54.5,53.1,29.90,SW,225,5.4,9.8,95,0.00,,,0.00,pywws,2013-04-14 02:37:00,
2013-04-14 03:42:00,54.5,52.8,29.90,South,180,2.2,4.5,94,0.00,,,0.00,pywws,2013-04-14 02:42:00,
2013-04-14 03:47:00,54.3,52.6,29.90,NE,45,5.4,12.1,94,0.00,,,0.00,pywws,2013-04-14 02:47:00,
2013-04-14 03:53:00,54.3,52.6,29.90,South,180,5.4,9.2,94,0.00,,,0.00,pywws,2013-04-14 02:53:00,
2013-04-14 03:59:00,54.3,52.6,29.90,South,180,3.8,6.9,94,0.00,,,0.00,pywws,2013-04-14 02:59:00,
2013-04-14 04:04:00,54.1,52.5,29.90,SSE,158,6.0,10.7,94,0.00,,,0.00,pywws,2013-04-14 03:04:00,
2013-04-14 04:10:00,54.1,52.2,29.90,SSE,158,4.5,8.3,93,0.00,,,0.00,pywws,2013-04-14 03:10:00,
2013-04-14 04:15:00,54.1,52.2,29.89,South,180,5.4,13.0,93,0.00,,,0.00,pywws,2013-04-14 03:15:00,
2013-04-14 04:21:00,53.8,51.8,29.90,SE,135,4.5,7.6,93,0.00,,,0.00,pywws,2013-04-14 03:21:00,
2013-04-14 04:27:00,53.6,51.9,29.90,SE,135,6.0,12.1,94,0.00,,,0.00,pywws,2013-04-14 03:27:00,
2013-04-14 04:32:00,53.4,51.7,29.89,SE,135,6.0,11.4,94,0.00,,,0.00,pywws,2013-04-14 03:32:00,
2013-04-14 04:37:00,53.2,51.6,29.90,East,90,2.2,8.3,94,0.00,,,0.00,pywws,2013-04-14 03:37:00,
2013-04-14 04:42:00,53.2,51.8,29.89,East,90,3.1,7.6,95,0.00,,,0.00,pywws,2013-04-14 03:42:00,
2013-04-14 04:48:00,53.2,51.8,29.89,SE,135,3.8,8.3,95,0.00,,,0.00,pywws,2013-04-14 03:48:00,
2013-04-14 04:54:00,53.2,51.8,29.89,SE,135,4.5,12.1,95,0.00,,,0.00,pywws,2013-04-14 03:54:00,
2013-04-14 04:59:00,53.2,51.6,29.90,SE,135,6.0,12.1,94,0.00,,,0.00,pywws,2013-04-14 03:59:00,
2013-04-14 05:00:00,53.2,51.6,29.90,South,180,5.4,15.2,94,0.00,,,0.00,pywws,2013-04-14 04:00:00,
2013-04-14 05:02:00,53.2,51.6,29.89,South,180,5.4,9.8,94,0.00,,,0.00,pywws,2013-04-14 04:02:00,
2013-04-14 05:08:00,53.2,51.6,29.89,SE,135,6.0,12.1,94,0.00,,,0.00,pywws,2013-04-14 04:08:00,
2013-04-14 05:14:00,53.2,51.3,29.89,South,180,6.0,14.5,93,0.00,,,0.00,pywws,2013-04-14 04:14:00,
2013-04-14 05:19:00,53.4,51.2,29.89,East,90,4.5,13.0,92,0.00,,,0.00,pywws,2013-04-14 04:19:00,
2013-04-14 05:25:00,53.8,51.2,29.89,South,180,3.8,9.2,91,0.00,,,0.00,pywws,2013-04-14 04:25:00,
2013-04-14 05:30:00,54.0,50.8,29.89,NNE,23,6.9,11.4,89,0.00,,,0.00,pywws,2013-04-14 04:30:00,
2013-04-14 05:36:00,54.1,50.7,29.89,SW,225,6.0,16.8,88,0.00,,,0.00,pywws,2013-04-14 04:36:00,
2013-04-14 05:42:00,54.1,50.7,29.89,East,90,6.9,15.2,88,0.00,,,0.00,pywws,2013-04-14 04:42:00,
2013-04-14 05:47:00,54.1,50.4,29.89,SE,135,7.6,16.8,87,0.00,,,0.00,pywws,2013-04-14 04:47:00,
2013-04-14 05:53:00,54.1,50.4,29.90,SE,135,4.5,9.8,87,0.00,,,0.00,pywws,2013-04-14 04:53:00,
2013-04-14 05:58:00,54.1,50.4,29.90,East,90,3.8,8.3,87,0.00,,,0.00,pywws,2013-04-14 04:58:00,
2013-04-14 06:04:00,54.1,50.4,29.90,East,90,7.6,14.5,87,0.00,,,0.00,pywws,2013-04-14 05:04:00,
2013-04-14 06:10:00,54.1,50.4,29.90,SE,135,3.8,10.7,87,0.00,,,0.00,pywws,2013-04-14 05:10:00,
2013-04-14 06:15:00,54.1,50.4,29.90,East,90,5.4,11.4,87,0.00,,,0.00,pywws,2013-04-14 05:15:00,
2013-04-14 06:21:00,54.3,50.2,29.91,SE,135,3.1,9.8,86,0.00,,,0.00,pywws,2013-04-14 05:21:00,
2013-04-14 06:26:00,54.3,49.9,29.91,SE,135,5.4,10.7,85,0.00,,,0.00,pywws,2013-04-14 05:26:00,
2013-04-14 06:32:00,54.3,49.9,29.91,SW,225,7.6,16.8,85,0.00,,,0.00,pywws,2013-04-14 05:32:00,
2013-04-14 06:38:00,54.1,49.7,29.90,SE,135,5.4,14.5,85,0.00,,,0.00,pywws,2013-04-14 05:38:00,
2013-04-14 06:43:00,54.1,49.7,29.91,SE,135,7.6,12.1,85,0.00,,,0.00,pywws,2013-04-14 05:43:00,
2013-04-14 06:49:00,54.0,49.6,29.91,SE,135,7.6,12.1,85,0.00,,,0.00,pywws,2013-04-14 05:49:00,
2013-04-14 06:54:00,54.0,49.6,29.91,SSE,158,5.4,13.0,85,0.00,,,0.00,pywws,2013-04-14 05:54:00,
2013-04-14 07:00:00,54.1,49.7,29.91,South,180,6.9,12.1,85,0.00,,,0.00,pywws,2013-04-14 06:00:00,
2013-04-14 07:06:00,54.1,49.7,29.91,South,180,4.5,9.8,85,0.00,,,0.00,pywws,2013-04-14 06:06:00,
2013-04-14 07:11:00,54.1,49.7,29.91,South,180,8.3,14.5,85,0.00,,,0.00,pywws,2013-04-14 06:11:00,
2013-04-14 07:17:00,54.3,49.9,29.91,South,180,7.6,10.7,85,0.00,,,0.00,pywws,2013-04-14 06:17:00,
2013-04-14 07:22:00,54.3,49.6,29.91,South,180,8.3,13.6,84,0.00,,,0.00,pywws,2013-04-14 06:22:00,
2013-04-14 07:27:00,54.5,49.8,29.91,South,180,4.5,10.7,84,0.00,,,0.00,pywws,2013-04-14 06:27:00,
2013-04-14 07:33:00,54.5,49.8,29.91,SE,135,5.4,8.3,84,0.00,,,0.00,pywws,2013-04-14 06:33:00,
2013-04-14 07:38:00,54.9,50.1,29.91,NW,315,3.8,8.3,84,0.00,,,0.00,pywws,2013-04-14 06:38:00,
2013-04-14 07:44:00,54.9,49.8,29.91,South,180,5.4,11.4,83,0.00,,,0.00,pywws,2013-04-14 06:44:00,
2013-04-14 07:50:00,55.2,49.5,29.91,West,270,6.0,11.4,81,0.00,,,0.00,pywws,2013-04-14 06:50:00,
2013-04-14 07:56:00,55.2,49.5,29.91,South,180,6.0,11.4,81,0.00,,,0.00,pywws,2013-04-14 06:56:00,
2013-04-14 08:02:00,55.4,49.7,29.91,East,90,5.4,9.2,81,0.00,,,0.00,pywws,2013-04-14 07:02:00,
2013-04-14 08:07:00,55.4,49.7,29.91,SE,135,4.5,11.4,81,0.00,,,0.00,pywws,2013-04-14 07:07:00,
2013-04-14 08:13:00,55.8,49.7,29.91,SE,135,5.4,8.3,80,0.00,,,0.00,pywws,2013-04-14 07:13:00,
2013-04-14 08:18:00,56.1,49.7,29.91,North,0,7.6,14.5,79,0.00,,,0.00,pywws,2013-04-14 07:18:00,
2013-04-14 08:24:00,56.1,49.7,29.91,South,180,6.0,10.7,79,0.00,,,0.00,pywws,2013-04-14 07:24:00,
2013-04-14 08:30:00,56.5,49.7,29.91,South,180,7.6,13.0,78,0.00,,,0.00,pywws,2013-04-14 07:30:00,
2013-04-14 08:35:00,57.0,49.9,29.91,South,180,6.0,10.7,77,0.00,,,0.00,pywws,2013-04-14 07:35:00,
2013-04-14 08:42:00,57.7,49.9,29.91,South,180,6.0,12.1,75,0.00,,,0.00,pywws,2013-04-14 07:42:00,
2013-04-14 08:47:00,57.7,49.5,29.91,South,180,4.5,13.0,74,0.00,,,0.00,pywws,2013-04-14 07:47:00,
2013-04-14 08:53:00,58.1,49.9,29.91,East,90,5.4,11.4,74,0.00,,,0.00,pywws,2013-04-14 07:53:00,
2013-04-14 08:58:00,59.7,49.9,29.91,SE,135,6.0,10.7,70,0.00,,,0.00,pywws,2013-04-14 07:58:00,
2013-04-14 09:04:00,61.0,50.3,29.91,South,180,5.4,10.7,68,0.00,,,0.00,pywws,2013-04-14 08:04:00,
2013-04-14 09:10:00,62.6,50.7,29.92,SE,135,5.4,10.7,65,0.00,,,0.00,pywws,2013-04-14 08:10:00,
2013-04-14 09:15:00,61.9,49.6,29.92,SE,135,4.5,13.0,64,0.00,,,0.00,pywws,2013-04-14 08:15:00,
2013-04-14 09:21:00,61.0,49.9,29.92,WNW,293,3.8,9.2,67,0.00,,,0.00,pywws,2013-04-14 08:21:00,
2013-04-14 09:30:00,62.2,49.5,29.92,SE,135,8.3,17.5,63,0.00,,,0.00,pywws,2013-04-14 08:30:00,
2013-04-14 09:35:00,63.5,50.2,29.92,NW,315,4.5,9.8,62,0.00,,,0.00,pywws,2013-04-14 08:35:00,
2013-04-14 09:41:00,63.9,49.7,29.92,SE,135,6.0,12.1,60,0.00,,,0.00,pywws,2013-04-14 08:41:00,
2013-04-14 09:47:00,64.0,49.0,29.92,South,180,7.6,18.3,58,0.00,,,0.00,pywws,2013-04-14 08:47:00,
2013-04-14 09:52:00,64.6,49.5,29.91,South,180,4.5,13.6,58,0.00,,,0.00,pywws,2013-04-14 08:52:00,
2013-04-14 09:57:00,65.3,48.7,29.91,South,180,7.6,13.0,55,0.00,,,0.00,pywws,2013-04-14 08:57:00,
2013-04-14 10:02:00,64.9,48.9,29.91,SE,135,6.9,18.3,56,0.00,,,0.00,pywws,2013-04-14 09:02:00,
2013-04-14 10:08:00,64.6,48.5,29.91,SE,135,6.0,15.2,56,0.00,,,0.00,pywws,2013-04-14 09:08:00,
2013-04-14 10:14:00,64.6,48.0,29.91,NE,45,7.6,15.2,55,0.00,,,0.00,pywws,2013-04-14 09:14:00,
2013-04-14 10:19:00,65.1,48.5,29.91,South,180,6.0,15.9,55,0.00,,,0.00,pywws,2013-04-14 09:19:00,
2013-04-14 10:25:00,65.7,48.1,29.91,SE,135,8.3,15.9,53,0.00,,,0.00,pywws,2013-04-14 09:25:00,
2013-04-14 10:30:00,65.5,48.9,29.91,WSW,248,5.4,9.8,55,0.00,,,0.00,pywws,2013-04-14 09:30:00,
2013-04-14 10:36:00,66.0,49.4,29.90,South,180,4.5,10.7,55,0.00,,,0.00,pywws,2013-04-14 09:36:00,
2013-04-14 10:42:00,67.1,48.9,29.91,South,180,7.6,12.1,52,0.00,,,0.00,pywws,2013-04-14 09:42:00,
2013-04-14 10:47:00,68.5,49.2,29.91,SE,135,8.3,15.2,50,0.00,,,0.00,pywws,2013-04-14 09:47:00,
2013-04-14 10:53:00,68.4,47.9,29.91,South,180,9.8,21.2,48,0.00,,,0.00,pywws,2013-04-14 09:53:00,
2013-04-14 10:58:00,67.3,47.5,29.90,East,90,5.4,13.0,49,0.00,,,0.00,pywws,2013-04-14 09:58:00,
2013-04-14 11:04:00,67.1,47.3,29.91,SW,225,7.6,15.2,49,0.00,,,0.00,pywws,2013-04-14 10:04:00,
2013-04-14 11:10:00,66.6,47.3,29.91,South,180,9.2,18.3,50,0.00,,,0.00,pywws,2013-04-14 10:10:00,
2013-04-14 11:15:00,66.9,47.1,29.91,South,180,6.9,11.4,49,0.00,,,0.00,pywws,2013-04-14 10:15:00,
2013-04-14 11:21:00,66.9,47.7,29.91,SE,135,6.9,12.1,50,0.00,,,0.00,pywws,2013-04-14 10:21:00,
2013-04-14 11:26:00,66.6,47.9,29.90,South,180,4.5,13.6,51,0.00,,,0.00,pywws,2013-04-14 10:26:00,
2013-04-14 11:32:00,66.6,47.9,29.90,ENE,68,3.8,8.3,51,0.00,,,0.00,pywws,2013-04-14 10:32:00,
2013-04-14 11:38:00,67.5,48.2,29.90,South,180,3.8,9.2,50,0.00,,,0.00,pywws,2013-04-14 10:38:00,
2013-04-14 11:43:00,68.7,48.8,29.90,SE,135,5.4,11.4,49,0.00,,,0.00,pywws,2013-04-14 10:43:00,
2013-04-14 11:49:00,70.5,48.7,29.89,West,270,5.4,10.7,46,0.00,,,0.00,pywws,2013-04-14 10:49:00,
2013-04-14 11:54:00,70.7,48.3,29.89,SW,225,8.3,15.2,45,0.00,,,0.00,pywws,2013-04-14 10:54:00,
2013-04-14 12:00:00,71.1,48.0,29.89,SE,135,8.3,14.5,44,0.00,,,0.00,pywws,2013-04-14 11:00:00,
2013-04-14 12:06:00,72.1,49.0,29.89,West,270,6.9,14.5,44,0.00,,,0.00,pywws,2013-04-14 11:06:00,
2013-04-14 12:11:00,72.0,48.2,29.88,SW,225,6.9,10.7,43,0.00,,,0.00,pywws,2013-04-14 11:11:00,
2013-04-14 12:17:00,72.5,48.7,29.88,South,180,9.2,15.9,43,0.00,,,0.00,pywws,2013-04-14 11:17:00,
2013-04-14 12:23:00,72.3,48.6,29.88,NNE,23,6.9,17.5,43,0.00,,,0.00,pywws,2013-04-14 11:23:00,
2013-04-14 12:28:00,71.1,48.6,29.88,East,90,7.6,18.3,45,0.00,,,0.00,pywws,2013-04-14 11:28:00,
2013-04-14 12:34:00,70.5,48.7,29.89,SSE,158,6.0,13.0,46,0.00,,,0.00,pywws,2013-04-14 11:34:00,
2013-04-14 12:39:00,69.8,48.1,29.88,SW,225,9.2,18.3,46,0.00,,,0.00,pywws,2013-04-14 11:39:00,
2013-04-14 12:45:00,69.8,48.1,29.89,SE,135,6.9,14.5,46,0.00,,,0.00,pywws,2013-04-14 11:45:00,
2013-04-14 12:50:00,70.0,48.8,29.89,East,90,7.6,13.0,47,0.00,,,0.00,pywws,2013-04-14 11:50:00,
2013-04-14 12:56:00,70.0,48.8,29.89,SE,135,8.3,14.5,47,0.00,,,0.00,pywws,2013-04-14 11:56:00,
2013-04-14 13:02:00,70.3,49.7,29.89,South,180,5.4,10.7,48,0.00,,,0.00,pywws,2013-04-14 12:02:00,
2013-04-14 13:08:00,70.3,49.1,29.88,South,180,9.2,15.2,47,0.00,,,0.00,pywws,2013-04-14 12:08:00,
2013-04-14 13:14:00,70.5,49.3,29.88,South,180,6.9,11.4,47,0.00,,,0.00,pywws,2013-04-14 12:14:00,
2013-04-14 13:19:00,70.3,49.7,29.88,SE,135,3.8,10.7,48,0.00,,,0.00,pywws,2013-04-14 12:19:00,
2013-04-14 13:25:00,69.8,49.2,29.89,SW,225,7.6,9.8,48,0.00,,,0.00,pywws,2013-04-14 12:25:00,
2013-04-14 13:30:00,69.6,50.1,29.88,South,180,3.8,8.3,50,0.00,,,0.00,pywws,2013-04-14 12:30:00,
2013-04-14 13:36:00,70.5,48.7,29.88,South,180,6.9,13.6,46,0.00,,,0.00,pywws,2013-04-14 12:36:00,
2013-04-14 13:41:00,71.1,49.8,29.89,SE,135,6.0,12.1,47,0.00,,,0.00,pywws,2013-04-14 12:41:00,
2013-04-14 13:46:00,70.3,48.6,29.88,SW,225,6.0,18.3,46,0.00,,,0.00,pywws,2013-04-14 12:46:00,
2013-04-14 13:52:00,69.1,49.6,29.89,SE,135,5.4,9.8,50,0.00,,,0.00,pywws,2013-04-14 12:52:00,
2013-04-14 13:57:00,68.4,49.5,29.89,SE,135,9.2,18.3,51,0.00,,,0.00,pywws,2013-04-14 12:57:00,
2013-04-14 14:02:00,68.0,49.7,29.89,South,180,8.3,15.9,52,0.00,,,0.00,pywws,2013-04-14 13:02:00,
2013-04-14 14:08:00,68.5,50.2,29.89,South,180,3.8,8.3,52,0.00,,,0.00,pywws,2013-04-14 13:08:00,
2013-04-14 14:13:00,70.0,50.5,29.88,SW,225,4.5,12.1,50,0.00,,,0.00,pywws,2013-04-14 13:13:00,
2013-04-14 14:18:00,71.1,49.8,29.89,SE,135,4.5,8.3,47,0.00,,,0.00,pywws,2013-04-14 13:18:00,
2013-04-14 14:24:00,72.0,49.4,29.89,South,180,6.9,15.2,45,0.00,,,0.00,pywws,2013-04-14 13:24:00,
2013-04-14 14:29:00,71.8,49.3,29.89,South,180,4.5,10.7,45,0.00,,,0.00,pywws,2013-04-14 13:29:00,
2013-04-14 14:35:00,72.0,50.0,29.89,SE,135,4.5,11.4,46,0.00,,,0.00,pywws,2013-04-14 13:35:00,
2013-04-14 14:40:00,72.5,48.7,29.88,South,180,6.0,13.0,43,0.00,,,0.00,pywws,2013-04-14 13:40:00,
2013-04-14 14:46:00,72.3,47.9,29.88,SE,135,6.9,14.5,42,0.00,,,0.00,pywws,2013-04-14 13:46:00,
2013-04-14 14:51:00,72.1,47.8,29.88,East,90,6.9,15.2,42,0.00,,,0.00,pywws,2013-04-14 13:51:00,
2013-04-14 14:56:00,72.5,46.8,29.89,SW,225,8.3,13.0,40,0.00,,,0.00,pywws,2013-04-14 13:56:00,
2013-04-14 15:02:00,72.1,47.1,29.90,SE,135,6.9,16.8,41,0.00,,,0.00,pywws,2013-04-14 14:02:00,
2013-04-14 15:07:00,70.9,47.3,29.89,North,0,5.4,12.1,43,0.00,,,0.00,pywws,2013-04-14 14:07:00,
2013-04-14 15:12:00,71.4,47.7,29.89,South,180,4.5,9.2,43,0.00,,,0.00,pywws,2013-04-14 14:12:00,
2013-04-14 15:18:00,71.2,47.6,29.89,North,0,6.0,14.5,43,0.00,,,0.00,pywws,2013-04-14 14:18:00,
2013-04-14 15:23:00,71.2,47.6,29.89,SE,135,4.5,11.4,43,0.00,,,0.00,pywws,2013-04-14 14:23:00,
2013-04-14 15:29:00,69.8,48.6,29.89,NE,45,2.2,11.4,47,0.00,,,0.00,pywws,2013-04-14 14:29:00,
2013-04-14 15:34:00,69.3,48.2,29.88,South,180,6.0,15.9,47,0.00,,,0.00,pywws,2013-04-14 14:34:00,
2013-04-14 15:40:00,68.2,48.3,29.88,South,180,5.4,9.2,49,0.00,,,0.00,pywws,2013-04-14 14:40:00,
2013-04-14 15:46:00,68.2,49.4,29.88,South,180,4.5,7.6,51,0.00,,,0.00,pywws,2013-04-14 14:46:00,
2013-04-14 15:51:00,68.5,49.7,29.88,South,180,3.8,8.3,51,0.00,,,0.00,pywws,2013-04-14 14:51:00,
2013-04-14 15:57:00,68.9,50.0,29.88,South,180,5.4,8.3,51,0.00,,,0.00,pywws,2013-04-14 14:57:00,
2013-04-14 16:02:00,68.0,50.2,29.88,NE,45,9.2,16.8,53,0.00,,,0.00,pywws,2013-04-14 15:02:00,
2013-04-14 16:07:00,66.9,50.2,29.88,SE,135,6.0,13.6,55,0.00,,,0.00,pywws,2013-04-14 15:07:00,
2013-04-14 16:13:00,66.4,50.7,29.88,SE,135,3.8,9.8,57,0.00,,,0.00,pywws,2013-04-14 15:13:00,
2013-04-14 16:18:00,66.0,50.8,29.88,SE,135,6.9,10.7,58,0.00,,,0.00,pywws,2013-04-14 15:18:00,
2013-04-14 16:24:00,65.8,51.6,29.88,NW,315,5.4,12.1,60,0.00,,,0.00,pywws,2013-04-14 15:24:00,
2013-04-14 16:30:00,66.2,51.4,29.89,SE,135,5.4,10.7,59,0.00,,,0.00,pywws,2013-04-14 15:30:00,
2013-04-14 16:35:00,66.4,51.1,29.89,SE,135,5.4,9.8,58,0.00,,,0.00,pywws,2013-04-14 15:35:00,
2013-04-14 16:41:00,66.4,51.1,29.89,South,180,3.8,8.3,58,0.00,,,0.00,pywws,2013-04-14 15:41:00,
2013-04-14 16:46:00,66.6,50.8,29.89,South,180,6.9,13.0,57,0.00,,,0.00,pywws,2013-04-14 15:46:00,
2013-04-14 16:52:00,66.6,50.4,29.88,SE,135,8.3,14.5,56,0.00,,,0.00,pywws,2013-04-14 15:52:00,
2013-04-14 16:57:00,66.9,50.2,29.88,South,180,6.0,13.6,55,0.00,,,0.00,pywws,2013-04-14 15:57:00,
2013-04-14 17:02:00,66.7,49.6,29.88,South,180,5.4,12.1,54,0.00,,,0.00,pywws,2013-04-14 16:02:00,
2013-04-14 17:07:00,68.4,50.6,29.88,SE,135,3.8,9.2,53,0.00,,,0.00,pywws,2013-04-14 16:07:00,
2013-04-14 17:13:00,70.3,49.7,29.88,SE,135,5.4,12.1,48,0.00,,,0.00,pywws,2013-04-14 16:13:00,
2013-04-14 17:18:00,68.9,48.9,29.88,SE,135,4.5,7.6,49,0.00,,,0.00,pywws,2013-04-14 16:18:00,
2013-04-14 17:24:00,68.2,48.8,29.88,South,180,5.4,11.4,50,0.00,,,0.00,pywws,2013-04-14 16:24:00,
2013-04-14 17:30:00,66.7,48.5,29.88,SW,225,4.5,9.2,52,0.00,,,0.00,pywws,2013-04-14 16:30:00,
2013-04-14 17:35:00,66.4,49.2,29.88,South,180,2.2,5.4,54,0.00,,,0.00,pywws,2013-04-14 16:35:00,
2013-04-14 17:42:00,66.2,49.1,29.88,SE,135,4.5,8.3,54,0.00,,,0.00,pywws,2013-04-14 16:42:00,
2013-04-14 17:47:00,66.0,48.9,29.89,South,180,9.8,15.2,54,0.00,,,0.00,pywws,2013-04-14 16:47:00,
2013-04-14 17:52:00,66.0,49.4,29.89,South,180,5.4,15.9,55,0.00,,,0.00,pywws,2013-04-14 16:52:00,
2013-04-14 17:58:00,66.0,48.9,29.89,NE,45,6.0,13.0,54,0.00,,,0.00,pywws,2013-04-14 16:58:00,
2013-04-14 18:03:00,65.5,48.9,29.90,WNW,293,3.8,9.8,55,0.00,,,0.00,pywws,2013-04-14 17:03:00,
2013-04-14 18:09:00,65.1,49.0,29.90,South,180,4.5,7.6,56,0.00,,,0.00,pywws,2013-04-14 17:09:00,
2013-04-14 18:14:00,65.3,49.7,29.89,South,180,3.1,6.0,57,0.00,,,0.00,pywws,2013-04-14 17:14:00,
2013-04-14 18:20:00,64.8,49.6,29.90,South,180,4.5,11.4,58,0.00,,,0.00,pywws,2013-04-14 17:20:00,
2013-04-14 18:26:00,64.2,49.6,29.89,NW,315,3.8,7.6,59,0.00,,,0.00,pywws,2013-04-14 17:26:00,
2013-04-14 18:32:00,63.9,50.1,29.90,SW,225,3.1,8.3,61,0.00,,,0.00,pywws,2013-04-14 17:32:00,
2013-04-14 18:37:00,63.5,50.2,29.90,NW,315,4.5,9.8,62,0.00,,,0.00,pywws,2013-04-14 17:37:00,
2013-04-14 18:42:00,63.5,50.7,29.90,South,180,2.2,11.4,63,0.00,,,0.00,pywws,2013-04-14 17:42:00,
2013-04-14 18:48:00,63.7,51.3,29.89,SE,135,4.5,8.3,64,0.00,,,0.00,pywws,2013-04-14 17:48:00,
2013-04-14 18:54:00,63.5,51.1,29.90,South,180,3.1,6.0,64,0.00,,,0.00,pywws,2013-04-14 17:54:00,
2013-04-14 18:59:00,63.3,51.3,29.90,SE,135,7.6,15.2,65,0.00,,,0.00,pywws,2013-04-14 17:59:00,
2013-04-14 19:05:00,63.0,51.4,29.90,South,180,5.4,13.0,66,0.00,,,0.00,pywws,2013-04-14 18:05:00,
2013-04-14 19:10:00,62.6,51.5,29.90,South,180,3.8,7.6,67,0.00,,,0.00,pywws,2013-04-14 18:10:00,
2013-04-14 19:16:00,62.2,51.5,29.90,South,180,2.2,5.4,68,0.00,,,0.00,pywws,2013-04-14 18:16:00,
2013-04-14 19:21:00,62.1,51.4,29.91,NNE,23,5.4,9.2,68,0.00,,,0.00,pywws,2013-04-14 18:21:00,
2013-04-14 19:27:00,61.7,51.4,29.91,WNW,293,6.0,13.0,69,0.00,,,0.00,pywws,2013-04-14 18:27:00,
2013-04-14 19:32:00,61.5,51.3,29.91,South,180,3.1,6.0,69,0.00,,,0.00,pywws,2013-04-14 18:32:00,
2013-04-14 19:38:00,61.3,51.1,29.91,SE,135,2.2,5.4,69,0.00,,,0.00,pywws,2013-04-14 18:38:00,
2013-04-14 19:43:00,61.2,51.3,29.91,SE,135,2.2,5.4,70,0.00,,,0.00,pywws,2013-04-14 18:43:00,
2013-04-14 19:49:00,61.0,50.7,29.91,SE,135,2.2,7.6,69,0.00,,,0.00,pywws,2013-04-14 18:49:00,
2013-04-14 19:54:00,60.8,51.0,29.92,NW,315,3.1,7.6,70,0.00,,,0.00,pywws,2013-04-14 18:54:00,
2013-04-14 19:59:00,60.6,50.8,29.92,North,0,3.8,9.8,70,0.00,,,0.00,pywws,2013-04-14 18:59:00,
2013-04-14 20:05:00,60.3,50.4,29.92,North,0,4.5,8.3,70,0.00,,,0.00,pywws,2013-04-14 19:05:00,
2013-04-14 20:10:00,60.1,50.6,29.93,NNE,23,3.8,7.6,71,0.00,,,0.00,pywws,2013-04-14 19:10:00,
2013-04-14 20:16:00,59.9,50.5,29.93,WNW,293,4.5,7.6,71,0.00,,,0.00,pywws,2013-04-14 19:16:00,
2013-04-14 20:21:00,59.7,50.7,29.93,SE,135,3.1,8.3,72,0.00,,,0.00,pywws,2013-04-14 19:21:00,
2013-04-14 20:27:00,59.2,50.5,29.93,NW,315,4.5,9.2,73,0.00,,,0.00,pywws,2013-04-14 19:27:00,
2013-04-14 20:32:00,59.0,50.7,29.93,West,270,5.4,8.3,74,0.00,,,0.00,pywws,2013-04-14 19:32:00,
2013-04-14 20:38:00,58.8,50.9,29.93,South,180,3.8,8.3,75,0.00,,,0.00,pywws,2013-04-14 19:38:00,
2013-04-14 20:43:00,58.6,50.7,29.93,SE,135,3.8,7.6,75,0.00,,,0.00,pywws,2013-04-14 19:43:00,
2013-04-14 20:49:00,58.6,50.7,29.94,East,90,2.2,4.5,75,0.00,,,0.00,pywws,2013-04-14 19:49:00,
2013-04-14 20:54:00,58.5,50.6,29.94,South,180,5.4,9.8,75,0.00,,,0.00,pywws,2013-04-14 19:54:00,
2013-04-14 21:00:00,58.3,50.4,29.94,SE,135,2.2,4.5,75,0.00,,,0.00,pywws,2013-04-14 20:00:00,
2013-04-14 21:06:00,58.3,50.4,29.93,West,270,2.2,3.8,75,0.00,,,0.00,pywws,2013-04-14 20:06:00,
2013-04-14 21:11:00,58.3,50.0,29.94,SW,225,6.9,9.8,74,0.00,,,0.00,pywws,2013-04-14 20:11:00,
2013-04-14 21:17:00,58.1,49.9,29.94,South,180,2.2,3.8,74,0.00,,,0.00,pywws,2013-04-14 20:17:00,
2013-04-14 21:22:00,58.1,49.5,29.94,South,180,3.8,10.7,73,0.00,,,0.00,pywws,2013-04-14 20:22:00,
2013-04-14 21:28:00,57.9,48.9,29.94,SW,225,2.2,6.0,72,0.00,,,0.00,pywws,2013-04-14 20:28:00,
2013-04-14 21:34:00,57.9,48.9,29.94,West,270,3.8,6.9,72,0.00,,,0.00,pywws,2013-04-14 20:34:00,
2013-04-14 21:39:00,57.9,48.6,29.94,SW,225,4.5,7.6,71,0.00,,,0.00,pywws,2013-04-14 20:39:00,
2013-04-14 21:45:00,57.9,48.6,29.94,South,180,2.2,4.5,71,0.00,,,0.00,pywws,2013-04-14 20:45:00,
2013-04-14 21:50:00,57.9,48.2,29.94,SW,225,2.2,6.0,70,0.00,,,0.00,pywws,2013-04-14 20:50:00,
2013-04-14 21:56:00,57.9,48.2,29.94,SSE,158,3.8,7.6,70,0.00,,,0.00,pywws,2013-04-14 20:56:00,
2013-04-14 22:01:00,57.7,48.0,29.94,SW,225,4.5,9.8,70,0.00,,,0.00,pywws,2013-04-14 21:01:00,
2013-04-14 22:06:00,57.9,47.8,29.94,SE,135,3.8,9.2,69,0.00,,,0.00,pywws,2013-04-14 21:06:00,
2013-04-14 22:11:00,57.7,47.6,29.95,SE,135,3.1,8.3,69,0.00,,,0.00,pywws,2013-04-14 21:11:00,
2013-04-14 22:17:00,57.7,47.6,29.94,SSE,158,2.2,5.4,69,0.00,,,0.00,pywws,2013-04-14 21:17:00,
2013-04-14 22:23:00,57.6,47.5,29.93,South,180,2.2,6.9,69,0.00,,,0.00,pywws,2013-04-14 21:23:00,
2013-04-14 22:28:00,57.4,47.3,29.95,SE,135,1.6,3.8,69,0.00,,,0.00,pywws,2013-04-14 21:28:00,
2013-04-14 22:34:00,57.2,47.1,29.94,South,180,3.1,6.9,69,0.00,,,0.00,pywws,2013-04-14 21:34:00,
2013-04-14 22:39:00,57.0,46.9,29.94,South,180,2.2,4.5,69,0.00,,,0.00,pywws,2013-04-14 21:39:00,
2013-04-14 22:45:00,56.8,46.8,29.95,NW,315,3.8,8.3,69,0.00,,,0.00,pywws,2013-04-14 21:45:00,
2013-04-14 22:50:00,56.8,46.8,29.94,South,180,4.5,13.0,69,0.00,,,0.00,pywws,2013-04-14 21:50:00,
2013-04-14 22:56:00,56.8,46.4,29.95,SE,135,2.2,6.9,68,0.00,,,0.00,pywws,2013-04-14 21:56:00,
2013-04-14 23:02:00,56.7,46.2,29.95,South,180,3.8,7.6,68,0.00,,,0.00,pywws,2013-04-14 22:02:00,
2013-04-14 23:07:00,56.7,46.2,29.95,SE,135,3.8,8.3,68,0.00,,,0.00,pywws,2013-04-14 22:07:00,
2013-04-14 23:13:00,56.3,46.3,29.95,East,90,3.1,4.5,69,0.00,,,0.00,pywws,2013-04-14 22:13:00,
2013-04-14 23:19:00,56.1,46.1,29.95,SE,135,3.1,6.0,69,0.00,,,0.00,pywws,2013-04-14 22:19:00,
2013-04-14 23:24:00,56.1,46.5,29.96,SE,135,2.2,7.6,70,0.00,,,0.00,pywws,2013-04-14 22:24:00,
2013-04-14 23:30:00,56.1,46.5,29.96,SE,135,1.6,4.5,70,0.00,,,0.00,pywws,2013-04-14 22:30:00,
2013-04-14 23:35:00,55.9,46.3,29.96,SE,135,3.1,6.9,70,0.00,,,0.00,pywws,2013-04-14 22:35:00,
2013-04-14 23:41:00,55.9,46.7,29.95,South,180,3.1,6.9,71,0.00,,,0.00,pywws,2013-04-14 22:41:00,
2013-04-14 23:46:00,55.8,46.5,29.95,South,180,3.1,6.0,71,0.00,,,0.00,pywws,2013-04-14 22:46:00,
2013-04-14 23:52:00,55.8,46.9,29.95,SW,225,1.6,4.5,72,0.00,,,0.00,pywws,2013-04-14 22:52:00,
2013-04-14 23:58:00,55.6,46.7,29.95,South,180,3.1,7.6,72,0.00,,,0.00,pywws,2013-04-14 22:58:00,